Latest Weather Observations for Busselton Airport

IDW60801

Issued at 10:32 pm WST Tuesday 28 April 2015 (issued every 30 minutes, with the page automatically refreshed every 10 minutes)

About weather observations | Map of weather stations | Latest weather observations for WA | Other Formats
Station Details ID: 009603 Name: BUSSELTON AERO Lat: -33.69 Lon: 115.40 Height: 16.3 m
Data from the previous 72 hours. | See also: Recent months at Busselton Airport
Date/Time
WST
Temp
°C
App
Temp
°C
Dew
Point
Rel
Hum
%
Delta-T
°C
Wind Press
QNH
hPa
Press
MSL
hPa
Rain
since 9 am
mm
Dir
 
Spd
km/h
Gust
km/h
Spd
kts
Gust
kts
28/10:30pm 16.7 16.2 12.5 76 2.3 E 7 9 4 5 1020.6 1020.6 0.0
28/10:00pm 16.5 15.9 12.3 76 2.3 E 7 9 4 5 1020.8 1020.8 0.0
28/09:30pm 16.4 16.6 12.0 75 2.4 E 2 7 1 4 1020.9 1020.9 0.0
28/09:00pm 16.7 15.6 11.8 73 2.7 ENE 9 11 5 6 1021.1 1021.1 0.0
28/08:30pm 16.5 15.4 11.9 74 2.5 ENE 9 11 5 6 1021.1 1021.1 0.0
28/08:00pm 16.9 15.8 12.0 73 2.7 E 9 9 5 5 1021.2 1021.2 0.0
28/07:30pm 17.1 16.1 12.4 74 2.6 E 9 11 5 6 1021.0 1021.0 0.0
28/07:00pm 16.3 15.2 12.1 76 2.3 E 9 11 5 6 1021.0 1021.0 0.0
28/06:30pm 17.5 17.0 12.8 74 2.6 NNE 7 9 4 5 1020.8 1020.8 0.0
28/06:00pm 18.1 18.9 12.5 70 3.1 CALM 0 0 0 0 1020.8 1020.8 0.0
28/05:30pm 19.7 19.3 12.9 65 3.8 WNW 7 9 4 5 1020.8 1020.8 0.0
28/05:00pm 20.1 19.2 12.6 62 4.2 N 9 13 5 7 1020.4 1020.4 0.0
28/04:30pm 20.4 19.4 12.4 60 4.5 N 9 15 5 8 1020.3 1020.3 0.0
28/04:00pm 21.0 19.1 11.9 56 5.1 N 13 15 7 8 1020.2 1020.2 0.0
28/03:30pm 21.3 19.3 11.6 54 5.4 NNW 13 19 7 10 1020.4 1020.4 0.0
28/03:00pm 21.6 19.0 10.7 50 6.0 NNW 15 20 8 11 1020.5 1020.5 0.0
28/02:30pm 22.0 18.6 9.2 44 6.8 NNW 17 24 9 13 1020.1 1020.1 0.0
28/02:00pm 22.0 18.7 9.5 45 6.7 N 17 24 9 13 1020.2 1020.2 0.0
28/01:30pm 22.2 18.1 8.0 40 7.4 N 19 24 10 13 1020.4 1020.4 0.0
28/01:00pm 22.1 18.6 8.9 43 7.0 N 17 22 9 12 1020.6 1020.6 0.0
28/12:30pm 22.1 18.1 8.2 41 7.3 N 19 24 10 13 1021.3 1021.3 0.0
28/12:00pm 21.6 17.5 7.8 41 7.2 N 19 24 10 13 1021.3 1021.3 0.0
28/11:30am 22.5 18.0 7.1 37 7.9 NNE 20 26 11 14 1021.5 1021.5 0.0
28/11:00am 21.7 17.6 7.9 41 7.2 NNE 19 24 10 13 1022.1 1022.1 0.0
28/10:30am 20.5 16.6 7.2 42 6.8 NNE 17 24 9 13 1022.3 1022.3 0.0
28/10:00am 19.4 15.4 6.5 43 6.4 NNE 17 20 9 11 1022.6 1022.6 0.0
28/09:30am 18.2 14.9 6.4 46 5.8 NE 13 17 7 9 1022.7 1022.7 0.0
28/09:00am 17.3 14.4 6.5 49 5.3 ENE 11 17 6 9 1022.9 1022.9 0.0
28/08:30am 15.9 13.3 6.1 52 4.7 E 9 13 5 7 1023.0 1023.0 0.0
28/08:00am 14.0 11.7 5.6 57 3.9 ENE 7 9 4 5 1023.0 1023.0 0.0
28/07:30am 10.7 8.1 4.4 65 2.8 E 7 9 4 5 1022.7 1022.7 0.0
28/07:00am 9.8 7.2 4.0 67 2.5 E 7 11 4 6 1022.6 1022.6 0.0
28/06:30am 9.9 6.9 4.1 67 2.6 ESE 9 11 5 6 1022.5 1022.5 0.0
28/06:00am 9.5 6.1 3.9 68 2.4 E 11 13 6 7 1022.5 1022.5 0.0
28/05:30am 9.4 5.6 3.8 68 2.4 E 13 13 7 7 1022.3 1022.3 0.0
28/05:00am 10.6 7.6 4.1 64 2.9 E 9 11 5 6 1022.3 1022.3 0.0
28/04:30am 11.7 8.4 4.4 61 3.3 E 11 15 6 8 1022.2 1022.2 0.0
28/04:00am 11.4 7.3 4.6 63 3.1 E 15 17 8 9 1021.9 1021.9 0.0
28/03:30am 11.0 7.3 4.7 65 2.8 E 13 17 7 9 1022.0 1022.0 0.0
28/03:00am 10.8 6.8 4.7 66 2.7 ESE 15 17 8 9 1022.3 1022.3 0.0
28/02:30am 10.4 6.7 4.5 67 2.6 ESE 13 15 7 8 1022.5 1022.5 0.0
28/02:00am 10.7 6.6 4.6 66 2.7 ESE 15 17 8 9 1022.6 1022.6 0.0
28/01:30am 11.0 7.0 4.9 66 2.8 ESE 15 17 8 9 1022.8 1022.8 0.0
28/01:00am 10.8 6.4 4.5 65 2.8 E 17 19 9 10 1022.8 1022.8 0.0
28/12:30am 11.5 7.5 4.7 63 3.1 E 15 17 8 9 1023.1 1023.1 0.0
28/12:00am 11.7 7.3 4.7 62 3.2 E 17 19 9 10 1023.2 1023.2 0.0
 
Date/Time
WST
Temp
°C
App
Temp
°C
Dew
Point
Rel
Hum
%
Delta-T
°C
Wind Press
QNH
hPa
Press
MSL
hPa
Rain
since 9 am
mm
Dir
 
Spd
km/h
Gust
km/h
Spd
kts
Gust
kts
27/11:30pm 11.9 7.9 5.1 63 3.1 E 15 19 8 10 1023.5 1023.4 0.0
27/11:00pm 11.2 7.2 4.9 65 2.8 E 15 17 8 9 1023.7 1023.6 0.0
27/10:30pm 11.8 8.5 4.8 62 3.2 E 11 13 6 7 1024.1 1024.0 0.0
27/10:00pm 12.5 8.9 5.2 61 3.4 E 13 15 7 8 1024.1 1024.0 0.0
27/09:30pm 12.3 9.2 5.5 63 3.2 E 11 13 6 7 1024.0 1023.9 0.0
27/09:00pm 12.6 8.8 5.8 63 3.2 ESE 15 15 8 8 1023.9 1023.8 0.0
27/08:30pm 13.0 9.6 6.1 63 3.3 ESE 13 13 7 7 1023.9 1023.8 0.0
27/08:00pm 13.5 11.1 7.1 65 3.1 SE 9 11 5 6 1023.9 1023.8 0.0
27/07:30pm 12.7 10.9 7.8 72 2.4 SSE 7 7 4 4 1024.0 1023.9 0.0
27/07:00pm 14.6 14.2 8.3 66 3.1 CALM 0 0 0 0 1023.9 1023.8 0.0
27/06:30pm 15.4 15.1 8.6 64 3.5 CALM 0 0 0 0 1023.7 1023.6 0.0
27/06:00pm 16.1 14.6 8.6 61 3.8 SSE 6 7 3 4 1023.5 1023.4 0.0
27/05:30pm 19.9 19.5 8.3 47 6.0 CALM 0 6 0 3 1023.5 1023.4 0.0
27/05:00pm 21.1 19.6 9.0 46 6.4 NNW 7 11 4 6 1023.5 1023.4 0.0
27/04:30pm 22.2 20.0 8.0 40 7.4 NNW 9 11 5 6 1023.2 1023.2 0.0
27/04:00pm 22.7 20.2 8.0 39 7.7 NNW 11 15 6 8 1023.3 1023.3 0.0
27/03:30pm 22.7 19.5 6.9 36 8.1 N 13 17 7 9 1023.3 1023.3 0.0
27/03:00pm 22.6 19.6 7.6 38 7.8 N 13 19 7 10 1023.2 1023.2 0.0
27/02:30pm 22.8 19.5 8.1 39 7.7 NNE 15 20 8 11 1023.3 1023.3 0.0
27/02:00pm 22.8 20.0 8.5 40 7.6 N 13 19 7 10 1023.3 1023.3 0.0
27/01:30pm 22.9 20.0 8.2 39 7.8 NNE 13 19 7 10 1023.6 1023.5 0.0
27/01:00pm 22.2 19.3 8.3 41 7.3 NE 13 22 7 12 1024.1 1024.0 0.0
27/12:30pm 22.6 18.1 6.8 36 8.1 NE 20 30 11 16 1024.7 1024.6 0.0
27/12:00pm 22.5 17.6 7.1 37 7.9 ENE 22 30 12 16 1025.1 1025.0 0.0
27/11:30am 22.0 16.5 7.4 39 7.6 ENE 26 32 14 17 1025.4 1025.3 0.0
27/11:00am 21.1 16.5 6.6 39 7.3 ENE 20 28 11 15 1025.9 1025.8 0.0
27/10:30am 20.3 16.4 7.3 43 6.6 ENE 17 24 9 13 1026.2 1026.1 0.0
27/10:00am 18.7 14.6 7.8 49 5.5 ENE 19 24 10 13 1026.6 1026.5 0.0
27/09:30am 17.5 13.8 7.8 53 4.9 E 17 26 9 14 1026.5 1026.4 0.0
27/09:00am 16.1 12.4 7.8 58 4.1 E 17 22 9 12 1026.9 1026.8 0.0
27/08:30am 14.9 12.0 8.2 64 3.4 E 13 17 7 9 1026.9 1026.8 0.0
27/08:00am 13.0 10.9 8.1 72 2.4 E 9 11 5 6 1026.7 1026.6 0.0
27/07:30am 10.4 8.5 6.9 79 1.7 ESE 6 7 3 4 1026.3 1026.2 0.0
27/07:00am 10.0 7.9 6.7 80 1.5 ESE 7 9 4 5 1026.1 1026.0 0.0
27/06:30am 10.2 8.2 7.1 81 1.5 E 7 9 4 5 1026.0 1025.9 0.0
27/06:00am 9.9 7.1 6.8 81 1.4 E 11 13 6 7 1025.8 1025.7 0.0
27/05:30am 10.6 6.7 7.1 79 1.7 ESE 17 20 9 11 1025.7 1025.6 0.0
27/05:00am 11.2 7.0 7.5 78 1.8 E 19 22 10 12 1025.5 1025.4 0.0
27/04:30am 11.7 7.3 7.6 76 2.0 E 20 28 11 15 1025.5 1025.4 0.0
27/04:00am 11.9 7.5 7.6 75 2.1 E 20 26 11 14 1025.3 1025.2 0.0
27/03:30am 12.3 7.6 7.8 74 2.2 E 22 28 12 15 1025.3 1025.2 0.0
27/03:00am 12.3 7.9 7.6 73 2.3 E 20 28 11 15 1025.4 1025.3 0.0
27/02:30am 12.4 7.6 7.5 72 2.4 E 22 28 12 15 1025.4 1025.3 0.0
27/02:00am 12.5 8.1 7.4 71 2.5 E 20 26 11 14 1025.7 1025.6 0.0
27/01:30am 12.6 8.2 7.3 70 2.6 E 20 26 11 14 1025.8 1025.7 0.0
27/01:00am 13.3 8.8 7.1 66 3.0 E 20 28 11 15 1026.0 1025.9 0.0
27/12:30am 13.5 9.5 6.8 64 3.2 E 17 22 9 12 1026.1 1026.0 0.0
27/12:00am 13.7 9.2 6.3 61 3.5 E 19 26 10 14 1026.1 1026.0 0.0
 
Date/Time
WST
Temp
°C
App
Temp
°C
Dew
Point
Rel
Hum
%
Delta-T
°C
Wind Press
QNH
hPa
Press
MSL
hPa
Rain
since 9 am
mm
Dir
 
Spd
km/h
Gust
km/h
Spd
kts
Gust
kts
26/11:30pm 13.6 8.9 6.0 60 3.6 E 20 26 11 14 1026.0 1025.9 0.0
26/11:00pm 13.7 8.9 5.8 59 3.7 ESE 20 26 11 14 1025.9 1025.8 0.0
26/10:30pm 12.0 7.7 5.4 64 3.1 ESE 17 19 9 10 1025.9 1025.8 0.0
26/10:00pm 12.5 8.3 5.7 63 3.2 ESE 17 19 9 10 1026.0 1025.9 0.0
26/09:30pm 13.4 9.2 5.8 60 3.6 ESE 17 17 9 9 1026.0 1025.9 0.0
26/09:00pm 13.6 9.9 6.2 61 3.5 ESE 15 17 8 9 1025.6 1025.5 0.0
26/08:30pm 14.2 10.5 6.3 59 3.8 ESE 15 19 8 10 1025.3 1025.2 0.0
26/08:00pm 13.2 9.5 6.3 63 3.3 SE 15 17 8 9 1025.3 1025.2 0.0
26/07:30pm 13.4 10.1 6.3 62 3.4 SE 13 15 7 8 1025.3 1025.2 0.0
26/07:00pm 13.7 10.4 6.3 61 3.5 SE 13 15 7 8 1025.1 1025.0 0.0
26/06:30pm 14.7 11.4 6.5 58 4.0 SE 13 15 7 8 1025.0 1024.9 0.0
26/06:00pm 15.9 12.7 6.9 55 4.4 SSE 13 15 7 8 1024.8 1024.7 0.0
26/05:30pm 17.4 14.0 7.5 52 5.0 SE 15 17 8 9 1024.6 1024.5 0.0
26/05:00pm 19.9 16.0 7.3 44 6.4 SE 17 20 9 11 1024.5 1024.4 0.0
26/04:30pm 21.4 17.4 6.5 38 7.6 ESE 17 20 9 11 1024.5 1024.4 0.0
26/04:00pm 21.8 17.9 6.9 38 7.6 ESE 17 26 9 14 1024.4 1024.3 0.0
26/03:30pm 22.1 17.7 7.5 39 7.6 ESE 20 28 11 15 1024.4 1024.3 0.0
26/03:00pm 22.3 18.2 6.1 35 8.2 ENE 17 30 9 16 1024.4 1024.3 0.0
26/02:30pm 22.1 17.8 7.1 38 7.7 E 19 24 10 13 1024.6 1024.5 0.0
26/02:00pm 21.8 17.8 6.5 37 7.7 E 17 26 9 14 1024.7 1024.6 0.0
26/01:30pm 21.6 17.4 5.9 36 7.9 ENE 17 28 9 15 1025.0 1024.9 0.0
26/01:00pm 21.8 17.3 6.1 36 7.9 NE 19 30 10 16 1025.2 1025.1 0.0
26/12:30pm 21.4 16.8 6.5 38 7.6 ENE 20 32 11 17 1025.5 1025.4 0.0
26/12:00pm 21.1 17.0 7.7 42 6.9 ENE 19 30 10 16 1026.1 1026.0 0.0
26/11:30am 20.5 16.5 8.2 45 6.4 ENE 19 26 10 14 1026.6 1026.5 0.0
26/11:00am 19.5 15.2 7.9 47 5.9 E 20 32 11 17 1026.9 1026.8 0.0
26/10:30am 18.9 14.6 7.7 48 5.7 E 20 28 11 15 1027.2 1027.1 0.0
26/10:00am 17.8 13.3 8.4 54 4.8 E 22 32 12 17 1027.4 1027.3 0.0
26/09:30am 16.6 12.5 8.6 59 4.1 E 20 26 11 14 1027.5 1027.4 0.0
26/09:00am 15.4 11.4 8.9 65 3.3 E 20 28 11 15 1027.6 1027.5 0.0
26/08:30am 13.7 9.8 8.7 72 2.5 E 19 24 10 13 1027.5 1027.4 0.0
26/08:00am 12.5 8.9 8.4 76 2.0 E 17 20 9 11 1027.4 1027.3 0.0
26/07:30am 10.9 7.2 7.8 81 1.5 E 17 19 9 10 1027.0 1026.9 0.0
26/07:00am 9.8 5.9 7.2 84 1.2 E 17 20 9 11 1026.8 1026.7 0.0
26/06:30am 9.6 6.1 7.0 84 1.2 E 15 17 8 9 1026.7 1026.6 0.0
26/06:00am 9.3 5.7 6.7 84 1.2 ESE 15 17 8 9 1026.7 1026.6 0.0
26/05:30am 9.7 6.2 7.1 84 1.2 ESE 15 17 8 9 1026.6 1026.5 0.0
26/05:00am 9.4 5.8 6.8 84 1.2 ESE 15 17 8 9 1026.6 1026.5 0.0
26/04:30am 9.5 5.9 6.6 82 1.4 ESE 15 17 8 9 1026.4 1026.3 0.0
26/04:00am 10.0 6.5 7.1 82 1.4 ESE 15 19 8 10 1026.4 1026.3 0.0
26/03:30am 10.0 6.1 6.9 81 1.5 ESE 17 19 9 10 1026.4 1026.3 0.0
26/03:00am 10.3 6.4 7.0 80 1.6 ESE 17 20 9 11 1026.6 1026.5 0.0
26/02:30am 10.7 6.8 7.0 78 1.8 ESE 17 20 9 11 1026.6 1026.5 0.0
26/02:00am 10.4 6.4 6.5 77 1.8 ESE 17 20 9 11 1026.8 1026.7 0.0
26/01:30am 10.3 6.6 6.5 77 1.8 ESE 15 19 8 10 1026.8 1026.7 0.0
26/01:00am 11.1 7.1 6.6 74 2.1 ESE 17 20 9 11 1026.8 1026.7 0.0
26/12:30am 11.5 7.5 6.6 72 2.3 ESE 17 20 9 11 1026.7 1026.6 0.0
26/12:00am 12.0 8.0 6.7 70 2.5 ESE 17 22 9 12 1026.7 1026.6 0.0
 
Date/Time
WST
Temp
°C
App
Temp
°C
Dew
Point
Rel
Hum
%
Delta-T
°C
Wind Press
QNH
hPa
Press
MSL
hPa
Rain
since 9 am
mm
Dir
 
Spd
km/h
Gust
km/h
Spd
kts
Gust
kts
25/11:30pm 12.1 7.5 6.4 68 2.7 SE 20 24 11 13 1026.8 1026.7 0.0
25/11:00pm 11.7 7.6 6.0 68 2.6 SE 17 20 9 11 1027.0 1026.9 0.0

Other Formats:

Comma delimited format used in spreadsheet applications
http://www.bom.gov.au/fwo/IDW60801/IDW60801.95611.axf

JavaScript Object Notation format (JSON) in row-major order
http://www.bom.gov.au/fwo/IDW60801/IDW60801.95611.json